sensor_id;sensor_type;location;lat;lon;timestamp;P1;P2;P0
79689;PMS5003;69156;55.932;-3.238;2023-07-20T00:01:41;15;14;
79689;PMS5003;69156;55.932;-3.238;2023-07-20T00:04:06;8;7;
79689;PMS5003;69156;55.932;-3.238;2023-07-20T00:06:31;10;8;
79689;PMS5003;69156;55.932;-3.238;2023-07-20T00:08:58;10;9;
79689;PMS5003;69156;55.932;-3.238;2023-07-20T00:11:25;10;8;
79689;PMS5003;69156;55.932;-3.238;2023-07-20T00:13:48;9;9;
79689;PMS5003;69156;55.932;-3.238;2023-07-20T00:16:14;9;9;
79689;PMS5003;69156;55.932;-3.238;2023-07-20T00:18:39;11;10;
79689;PMS5003;69156;55.932;-3.238;2023-07-20T00:21:05;11;11;
79689;PMS5003;69156;55.932;-3.238;2023-07-20T00:23:30;8;7;
79689;PMS5003;69156;55.932;-3.238;2023-07-20T00:25:55;9;9;
79689;PMS5003;69156;55.932;-3.238;2023-07-20T00:28:21;8;8;
79689;PMS5003;69156;55.932;-3.238;2023-07-20T00:30:46;11;10;
79689;PMS5003;69156;55.932;-3.238;2023-07-20T00:33:12;12;12;
79689;PMS5003;69156;55.932;-3.238;2023-07-20T00:35:37;9;9;
79689;PMS5003;69156;55.932;-3.238;2023-07-20T00:38:02;12;11;
79689;PMS5003;69156;55.932;-3.238;2023-07-20T00:40:28;10;9;
79689;PMS5003;69156;55.932;-3.238;2023-07-20T00:42:53;12;11;
79689;PMS5003;69156;55.932;-3.238;2023-07-20T00:45:18;10;10;
79689;PMS5003;69156;55.932;-3.238;2023-07-20T00:47:43;9;9;
79689;PMS5003;69156;55.932;-3.238;2023-07-20T00:50:09;11;11;
79689;PMS5003;69156;55.932;-3.238;2023-07-20T00:52:35;13;11;
79689;PMS5003;69156;55.932;-3.238;2023-07-20T00:55:00;11;10;
79689;PMS5003;69156;55.932;-3.238;2023-07-20T00:57:25;12;12;
79689;PMS5003;69156;55.932;-3.238;2023-07-20T00:59:51;12;12;
79689;PMS5003;69156;55.932;-3.238;2023-07-20T01:02:17;10;10;
79689;PMS5003;69156;55.932;-3.238;2023-07-20T01:04:44;10;10;
79689;PMS5003;69156;55.932;-3.238;2023-07-20T01:07:12;11;10;
79689;PMS5003;69156;55.932;-3.238;2023-07-20T01:09:37;14;13;
79689;PMS5003;69156;55.932;-3.238;2023-07-20T01:12:02;12;12;
79689;PMS5003;69156;55.932;-3.238;2023-07-20T01:14:26;16;16;
79689;PMS5003;69156;55.932;-3.238;2023-07-20T01:16:51;12;12;
79689;PMS5003;69156;55.932;-3.238;2023-07-20T01:19:17;13;13;
79689;PMS5003;69156;55.932;-3.238;2023-07-20T01:21:44;12;11;
79689;PMS5003;69156;55.932;-3.238;2023-07-20T01:25:18;11;11;
79689;PMS5003;69156;55.932;-3.238;2023-07-20T01:26:38;11;10;
79689;PMS5003;69156;55.932;-3.238;2023-07-20T01:29:06;9;9;
79689;PMS5003;69156;55.932;-3.238;2023-07-20T01:31:24;12;10;
79689;PMS5003;69156;55.932;-3.238;2023-07-20T01:33:49;9;9;
79689;PMS5003;69156;55.932;-3.238;2023-07-20T01:36:15;9;9;
79689;PMS5003;69156;55.932;-3.238;2023-07-20T01:38:40;11;10;
79689;PMS5003;69156;55.932;-3.238;2023-07-20T01:41:05;11;11;
79689;PMS5003;69156;55.932;-3.238;2023-07-20T01:43:30;11;11;
79689;PMS5003;69156;55.932;-3.238;2023-07-20T01:45:56;12;12;
79689;PMS5003;69156;55.932;-3.238;2023-07-20T01:48:21;14;13;
79689;PMS5003;69156;55.932;-3.238;2023-07-20T01:50:47;14;13;
79689;PMS5003;69156;55.932;-3.238;2023-07-20T01:53:13;14;13;
79689;PMS5003;69156;55.932;-3.238;2023-07-20T01:55:38;11;11;
79689;PMS5003;69156;55.932;-3.238;2023-07-20T01:58:04;14;13;
79689;PMS5003;69156;55.932;-3.238;2023-07-20T02:00:29;12;12;
79689;PMS5003;69156;55.932;-3.238;2023-07-20T02:02:54;13;13;
79689;PMS5003;69156;55.932;-3.238;2023-07-20T02:05:19;9;9;
79689;PMS5003;69156;55.932;-3.238;2023-07-20T02:07:45;11;11;
79689;PMS5003;69156;55.932;-3.238;2023-07-20T02:10:10;15;15;
79689;PMS5003;69156;55.932;-3.238;2023-07-20T02:12:36;11;11;
79689;PMS5003;69156;55.932;-3.238;2023-07-20T02:15:02;11;11;
79689;PMS5003;69156;55.932;-3.238;2023-07-20T02:17:27;11;11;
79689;PMS5003;69156;55.932;-3.238;2023-07-20T02:19:54;12;12;
79689;PMS5003;69156;55.932;-3.238;2023-07-20T02:22:19;14;13;
79689;PMS5003;69156;55.932;-3.238;2023-07-20T02:24:45;14;13;
79689;PMS5003;69156;55.932;-3.238;2023-07-20T02:27:10;10;10;
79689;PMS5003;69156;55.932;-3.238;2023-07-20T02:29:36;10;10;
79689;PMS5003;69156;55.932;-3.238;2023-07-20T02:32:01;13;12;
79689;PMS5003;69156;55.932;-3.238;2023-07-20T02:34:27;12;11;
79689;PMS5003;69156;55.932;-3.238;2023-07-20T02:36:52;13;12;
79689;PMS5003;69156;55.932;-3.238;2023-07-20T02:39:18;11;10;
79689;PMS5003;69156;55.932;-3.238;2023-07-20T02:41:43;14;13;
79689;PMS5003;69156;55.932;-3.238;2023-07-20T02:44:08;12;12;
79689;PMS5003;69156;55.932;-3.238;2023-07-20T02:46:34;13;13;
79689;PMS5003;69156;55.932;-3.238;2023-07-20T02:48:59;12;12;
79689;PMS5003;69156;55.932;-3.238;2023-07-20T02:51:25;12;12;
79689;PMS5003;69156;55.932;-3.238;2023-07-20T02:53:50;11;11;
79689;PMS5003;69156;55.932;-3.238;2023-07-20T02:56:16;9;9;
79689;PMS5003;69156;55.932;-3.238;2023-07-20T02:58:41;14;13;
79689;PMS5003;69156;55.932;-3.238;2023-07-20T03:01:07;14;14;
79689;PMS5003;69156;55.932;-3.238;2023-07-20T03:03:32;14;13;
79689;PMS5003;69156;55.932;-3.238;2023-07-20T03:05:57;13;13;
79689;PMS5003;69156;55.932;-3.238;2023-07-20T03:08:23;12;12;
79689;PMS5003;69156;55.932;-3.238;2023-07-20T03:10:48;10;10;
79689;PMS5003;69156;55.932;-3.238;2023-07-20T03:13:13;11;11;
79689;PMS5003;69156;55.932;-3.238;2023-07-20T03:15:39;13;13;
79689;PMS5003;69156;55.932;-3.238;2023-07-20T03:18:04;12;11;
79689;PMS5003;69156;55.932;-3.238;2023-07-20T03:20:29;12;12;
79689;PMS5003;69156;55.932;-3.238;2023-07-20T03:22:55;13;12;
79689;PMS5003;69156;55.932;-3.238;2023-07-20T03:25:20;9;9;
79689;PMS5003;69156;55.932;-3.238;2023-07-20T03:27:45;11;10;
79689;PMS5003;69156;55.932;-3.238;2023-07-20T03:30:11;11;10;
79689;PMS5003;69156;55.932;-3.238;2023-07-20T03:32:36;10;10;
79689;PMS5003;69156;55.932;-3.238;2023-07-20T03:35:01;12;12;
79689;PMS5003;69156;55.932;-3.238;2023-07-20T03:37:26;12;11;
79689;PMS5003;69156;55.932;-3.238;2023-07-20T03:39:52;10;10;
79689;PMS5003;69156;55.932;-3.238;2023-07-20T03:42:17;11;10;
79689;PMS5003;69156;55.932;-3.238;2023-07-20T03:44:42;10;10;
79689;PMS5003;69156;55.932;-3.238;2023-07-20T03:47:07;12;12;
79689;PMS5003;69156;55.932;-3.238;2023-07-20T03:49:32;12;11;
79689;PMS5003;69156;55.932;-3.238;2023-07-20T03:51:58;12;11;
79689;PMS5003;69156;55.932;-3.238;2023-07-20T03:54:23;10;10;
79689;PMS5003;69156;55.932;-3.238;2023-07-20T03:56:48;13;12;
79689;PMS5003;69156;55.932;-3.238;2023-07-20T03:59:14;14;13;
79689;PMS5003;69156;55.932;-3.238;2023-07-20T04:01:40;11;11;
79689;PMS5003;69156;55.932;-3.238;2023-07-20T04:04:06;10;10;
79689;PMS5003;69156;55.932;-3.238;2023-07-20T04:06:30;13;13;
79689;PMS5003;69156;55.932;-3.238;2023-07-20T04:08:56;11;11;
79689;PMS5003;69156;55.932;-3.238;2023-07-20T04:11:21;11;11;
79689;PMS5003;69156;55.932;-3.238;2023-07-20T04:13:47;10;9;
79689;PMS5003;69156;55.932;-3.238;2023-07-20T04:16:13;10;10;
79689;PMS5003;69156;55.932;-3.238;2023-07-20T04:18:38;11;11;
79689;PMS5003;69156;55.932;-3.238;2023-07-20T04:21:03;11;11;
79689;PMS5003;69156;55.932;-3.238;2023-07-20T04:23:28;14;12;
79689;PMS5003;69156;55.932;-3.238;2023-07-20T04:25:54;9;9;
79689;PMS5003;69156;55.932;-3.238;2023-07-20T04:28:20;9;9;
79689;PMS5003;69156;55.932;-3.238;2023-07-20T04:30:49;12;11;
79689;PMS5003;69156;55.932;-3.238;2023-07-20T04:33:11;12;12;
79689;PMS5003;69156;55.932;-3.238;2023-07-20T04:35:52;14;13;
79689;PMS5003;69156;55.932;-3.238;2023-07-20T04:38:01;13;12;
79689;PMS5003;69156;55.932;-3.238;2023-07-20T04:40:26;11;10;
79689;PMS5003;69156;55.932;-3.238;2023-07-20T04:42:51;13;12;
79689;PMS5003;69156;55.932;-3.238;2023-07-20T04:45:17;12;12;
79689;PMS5003;69156;55.932;-3.238;2023-07-20T04:47:42;11;11;
79689;PMS5003;69156;55.932;-3.238;2023-07-20T04:50:08;11;11;
79689;PMS5003;69156;55.932;-3.238;2023-07-20T04:52:33;11;11;
79689;PMS5003;69156;55.932;-3.238;2023-07-20T04:54:59;13;13;
79689;PMS5003;69156;55.932;-3.238;2023-07-20T04:57:25;10;10;
79689;PMS5003;69156;55.932;-3.238;2023-07-20T04:59:51;11;10;
79689;PMS5003;69156;55.932;-3.238;2023-07-20T05:02:17;10;10;
79689;PMS5003;69156;55.932;-3.238;2023-07-20T05:04:42;11;11;
79689;PMS5003;69156;55.932;-3.238;2023-07-20T05:07:07;12;12;
79689;PMS5003;69156;55.932;-3.238;2023-07-20T05:09:33;11;9;
79689;PMS5003;69156;55.932;-3.238;2023-07-20T05:11:59;10;10;
79689;PMS5003;69156;55.932;-3.238;2023-07-20T05:14:24;12;11;
79689;PMS5003;69156;55.932;-3.238;2023-07-20T05:16:49;10;10;
79689;PMS5003;69156;55.932;-3.238;2023-07-20T05:19:16;10;10;
79689;PMS5003;69156;55.932;-3.238;2023-07-20T05:21:42;13;12;
79689;PMS5003;69156;55.932;-3.238;2023-07-20T05:24:08;13;13;
79689;PMS5003;69156;55.932;-3.238;2023-07-20T05:26:33;12;11;
79689;PMS5003;69156;55.932;-3.238;2023-07-20T05:29:00;9;8;
79689;PMS5003;69156;55.932;-3.238;2023-07-20T05:31:26;10;9;
79689;PMS5003;69156;55.932;-3.238;2023-07-20T05:33:51;11;11;
79689;PMS5003;69156;55.932;-3.238;2023-07-20T05:36:17;9;9;
79689;PMS5003;69156;55.932;-3.238;2023-07-20T05:38:42;10;10;
79689;PMS5003;69156;55.932;-3.238;2023-07-20T05:41:07;12;12;
79689;PMS5003;69156;55.932;-3.238;2023-07-20T05:43:32;11;11;
79689;PMS5003;69156;55.932;-3.238;2023-07-20T05:45:58;12;11;
79689;PMS5003;69156;55.932;-3.238;2023-07-20T05:48:23;12;12;
79689;PMS5003;69156;55.932;-3.238;2023-07-20T05:50:48;10;9;
79689;PMS5003;69156;55.932;-3.238;2023-07-20T05:53:14;9;9;
79689;PMS5003;69156;55.932;-3.238;2023-07-20T05:55:40;13;11;
79689;PMS5003;69156;55.932;-3.238;2023-07-20T05:58:07;11;11;
79689;PMS5003;69156;55.932;-3.238;2023-07-20T06:00:33;9;9;
79689;PMS5003;69156;55.932;-3.238;2023-07-20T06:02:59;10;10;
79689;PMS5003;69156;55.932;-3.238;2023-07-20T06:05:25;12;11;
79689;PMS5003;69156;55.932;-3.238;2023-07-20T06:07:50;8;8;
79689;PMS5003;69156;55.932;-3.238;2023-07-20T06:10:15;13;12;
79689;PMS5003;69156;55.932;-3.238;2023-07-20T06:12:40;12;12;
79689;PMS5003;69156;55.932;-3.238;2023-07-20T06:15:06;12;11;
79689;PMS5003;69156;55.932;-3.238;2023-07-20T06:17:30;9;9;
79689;PMS5003;69156;55.932;-3.238;2023-07-20T06:19:56;12;12;
79689;PMS5003;69156;55.932;-3.238;2023-07-20T06:22:21;10;10;
79689;PMS5003;69156;55.932;-3.238;2023-07-20T06:24:47;12;11;
79689;PMS5003;69156;55.932;-3.238;2023-07-20T06:27:13;12;12;
79689;PMS5003;69156;55.932;-3.238;2023-07-20T06:29:38;12;11;
79689;PMS5003;69156;55.932;-3.238;2023-07-20T06:32:04;13;12;
79689;PMS5003;69156;55.932;-3.238;2023-07-20T06:34:29;11;11;
79689;PMS5003;69156;55.932;-3.238;2023-07-20T06:36:54;11;11;
79689;PMS5003;69156;55.932;-3.238;2023-07-20T06:39:19;11;11;
79689;PMS5003;69156;55.932;-3.238;2023-07-20T06:41:44;14;14;
79689;PMS5003;69156;55.932;-3.238;2023-07-20T06:44:10;15;15;
79689;PMS5003;69156;55.932;-3.238;2023-07-20T06:46:35;13;13;
79689;PMS5003;69156;55.932;-3.238;2023-07-20T06:49:01;17;17;
79689;PMS5003;69156;55.932;-3.238;2023-07-20T06:51:27;13;13;
79689;PMS5003;69156;55.932;-3.238;2023-07-20T06:53:52;18;17;
79689;PMS5003;69156;55.932;-3.238;2023-07-20T06:56:18;14;14;
79689;PMS5003;69156;55.932;-3.238;2023-07-20T06:58:43;16;15;
79689;PMS5003;69156;55.932;-3.238;2023-07-20T07:01:09;17;17;
79689;PMS5003;69156;55.932;-3.238;2023-07-20T07:03:35;14;14;
79689;PMS5003;69156;55.932;-3.238;2023-07-20T07:06:01;15;14;
79689;PMS5003;69156;55.932;-3.238;2023-07-20T07:08:26;19;19;
79689;PMS5003;69156;55.932;-3.238;2023-07-20T07:10:52;21;20;
79689;PMS5003;69156;55.932;-3.238;2023-07-20T07:13:18;20;20;
79689;PMS5003;69156;55.932;-3.238;2023-07-20T07:15:44;17;17;
79689;PMS5003;69156;55.932;-3.238;2023-07-20T07:18:09;21;21;
79689;PMS5003;69156;55.932;-3.238;2023-07-20T07:20:34;19;18;
79689;PMS5003;69156;55.932;-3.238;2023-07-20T07:23:00;23;20;
79689;PMS5003;69156;55.932;-3.238;2023-07-20T07:25:25;19;18;
79689;PMS5003;69156;55.932;-3.238;2023-07-20T07:27:52;22;22;
79689;PMS5003;69156;55.932;-3.238;2023-07-20T07:30:16;21;20;
79689;PMS5003;69156;55.932;-3.238;2023-07-20T07:32:42;24;23;
79689;PMS5003;69156;55.932;-3.238;2023-07-20T07:35:07;21;20;
79689;PMS5003;69156;55.932;-3.238;2023-07-20T07:37:32;22;22;
79689;PMS5003;69156;55.932;-3.238;2023-07-20T07:39:58;24;24;
79689;PMS5003;69156;55.932;-3.238;2023-07-20T07:42:24;24;23;
79689;PMS5003;69156;55.932;-3.238;2023-07-20T07:44:51;24;23;
79689;PMS5003;69156;55.932;-3.238;2023-07-20T07:47:17;21;21;
79689;PMS5003;69156;55.932;-3.238;2023-07-20T07:49:43;26;24;
79689;PMS5003;69156;55.932;-3.238;2023-07-20T07:52:08;24;24;
79689;PMS5003;69156;55.932;-3.238;2023-07-20T07:54:33;23;23;
79689;PMS5003;69156;55.932;-3.238;2023-07-20T07:57:00;25;24;
79689;PMS5003;69156;55.932;-3.238;2023-07-20T07:59:25;26;26;
79689;PMS5003;69156;55.932;-3.238;2023-07-20T08:01:50;26;26;
79689;PMS5003;69156;55.932;-3.238;2023-07-20T08:04:15;24;23;
79689;PMS5003;69156;55.932;-3.238;2023-07-20T08:06:41;23;22;
79689;PMS5003;69156;55.932;-3.238;2023-07-20T08:09:07;31;30;
79689;PMS5003;69156;55.932;-3.238;2023-07-20T08:11:32;24;24;
79689;PMS5003;69156;55.932;-3.238;2023-07-20T08:13:57;24;24;
79689;PMS5003;69156;55.932;-3.238;2023-07-20T08:16:23;24;24;
79689;PMS5003;69156;55.932;-3.238;2023-07-20T08:18:48;24;24;
79689;PMS5003;69156;55.932;-3.238;2023-07-20T08:21:14;21;20;
79689;PMS5003;69156;55.932;-3.238;2023-07-20T08:23:39;23;22;
79689;PMS5003;69156;55.932;-3.238;2023-07-20T08:26:05;27;27;
79689;PMS5003;69156;55.932;-3.238;2023-07-20T08:28:30;21;21;
79689;PMS5003;69156;55.932;-3.238;2023-07-20T08:30:56;24;23;
79689;PMS5003;69156;55.932;-3.238;2023-07-20T08:33:21;25;24;
79689;PMS5003;69156;55.932;-3.238;2023-07-20T08:35:47;24;24;
79689;PMS5003;69156;55.932;-3.238;2023-07-20T08:38:13;22;22;
79689;PMS5003;69156;55.932;-3.238;2023-07-20T08:40:39;26;25;
79689;PMS5003;69156;55.932;-3.238;2023-07-20T08:43:04;28;27;
79689;PMS5003;69156;55.932;-3.238;2023-07-20T08:45:29;21;21;
79689;PMS5003;69156;55.932;-3.238;2023-07-20T08:47:55;25;24;
79689;PMS5003;69156;55.932;-3.238;2023-07-20T08:50:20;26;25;
79689;PMS5003;69156;55.932;-3.238;2023-07-20T08:52:46;28;27;
79689;PMS5003;69156;55.932;-3.238;2023-07-20T08:55:11;24;22;
79689;PMS5003;69156;55.932;-3.238;2023-07-20T08:57:37;25;25;
79689;PMS5003;69156;55.932;-3.238;2023-07-20T09:00:03;25;25;
79689;PMS5003;69156;55.932;-3.238;2023-07-20T09:02:28;24;24;
79689;PMS5003;69156;55.932;-3.238;2023-07-20T09:04:54;22;22;
79689;PMS5003;69156;55.932;-3.238;2023-07-20T09:07:19;19;19;
79689;PMS5003;69156;55.932;-3.238;2023-07-20T09:09:44;18;18;
79689;PMS5003;69156;55.932;-3.238;2023-07-20T09:12:13;20;20;
79689;PMS5003;69156;55.932;-3.238;2023-07-20T09:14:37;21;21;
79689;PMS5003;69156;55.932;-3.238;2023-07-20T09:17:01;22;21;
79689;PMS5003;69156;55.932;-3.238;2023-07-20T09:19:27;21;20;
79689;PMS5003;69156;55.932;-3.238;2023-07-20T09:21:53;18;18;
79689;PMS5003;69156;55.932;-3.238;2023-07-20T09:24:19;16;16;
79689;PMS5003;69156;55.932;-3.238;2023-07-20T09:26:44;19;19;
79689;PMS5003;69156;55.932;-3.238;2023-07-20T09:29:09;20;20;
79689;PMS5003;69156;55.932;-3.238;2023-07-20T09:31:34;22;22;
79689;PMS5003;69156;55.932;-3.238;2023-07-20T09:33:59;24;22;
79689;PMS5003;69156;55.932;-3.238;2023-07-20T09:36:26;23;22;
79689;PMS5003;69156;55.932;-3.238;2023-07-20T09:38:51;18;18;
79689;PMS5003;69156;55.932;-3.238;2023-07-20T09:41:16;20;20;
79689;PMS5003;69156;55.932;-3.238;2023-07-20T09:43:42;23;22;
79689;PMS5003;69156;55.932;-3.238;2023-07-20T09:46:07;17;17;
79689;PMS5003;69156;55.932;-3.238;2023-07-20T09:48:32;19;19;
79689;PMS5003;69156;55.932;-3.238;2023-07-20T09:50:58;21;20;
79689;PMS5003;69156;55.932;-3.238;2023-07-20T09:53:24;21;21;
79689;PMS5003;69156;55.932;-3.238;2023-07-20T09:55:49;20;18;
79689;PMS5003;69156;55.932;-3.238;2023-07-20T09:58:15;19;18;
79689;PMS5003;69156;55.932;-3.238;2023-07-20T10:00:40;22;21;
79689;PMS5003;69156;55.932;-3.238;2023-07-20T10:03:06;19;19;
79689;PMS5003;69156;55.932;-3.238;2023-07-20T10:05:32;18;18;
79689;PMS5003;69156;55.932;-3.238;2023-07-20T10:07:56;22;22;
79689;PMS5003;69156;55.932;-3.238;2023-07-20T10:10:22;22;19;
79689;PMS5003;69156;55.932;-3.238;2023-07-20T10:12:48;21;21;
79689;PMS5003;69156;55.932;-3.238;2023-07-20T10:15:15;22;21;
79689;PMS5003;69156;55.932;-3.238;2023-07-20T10:17:40;21;20;
79689;PMS5003;69156;55.932;-3.238;2023-07-20T10:20:04;19;19;
79689;PMS5003;69156;55.932;-3.238;2023-07-20T10:22:30;19;19;
79689;PMS5003;69156;55.932;-3.238;2023-07-20T10:24:54;18;18;
79689;PMS5003;69156;55.932;-3.238;2023-07-20T10:27:20;17;16;
79689;PMS5003;69156;55.932;-3.238;2023-07-20T10:29:45;16;16;
79689;PMS5003;69156;55.932;-3.238;2023-07-20T10:32:11;17;17;
79689;PMS5003;69156;55.932;-3.238;2023-07-20T10:34:37;20;20;
79689;PMS5003;69156;55.932;-3.238;2023-07-20T10:37:02;17;16;
79689;PMS5003;69156;55.932;-3.238;2023-07-20T10:39:30;18;18;
79689;PMS5003;69156;55.932;-3.238;2023-07-20T10:42:02;22;20;
79689;PMS5003;69156;55.932;-3.238;2023-07-20T10:44:20;18;18;
79689;PMS5003;69156;55.932;-3.238;2023-07-20T10:46:45;17;17;
79689;PMS5003;69156;55.932;-3.238;2023-07-20T10:49:11;19;19;
79689;PMS5003;69156;55.932;-3.238;2023-07-20T10:51:39;17;17;
79689;PMS5003;69156;55.932;-3.238;2023-07-20T10:54:02;26;25;
79689;PMS5003;69156;55.932;-3.238;2023-07-20T10:56:28;31;30;
79689;PMS5003;69156;55.932;-3.238;2023-07-20T10:58:57;25;24;
79689;PMS5003;69156;55.932;-3.238;2023-07-20T11:01:20;24;23;
79689;PMS5003;69156;55.932;-3.238;2023-07-20T11:03:48;20;20;
79689;PMS5003;69156;55.932;-3.238;2023-07-20T11:06:44;22;22;
79689;PMS5003;69156;55.932;-3.238;2023-07-20T11:08:38;21;20;
79689;PMS5003;69156;55.932;-3.238;2023-07-20T11:11:35;24;23;
79689;PMS5003;69156;55.932;-3.238;2023-07-20T11:13:27;24;23;
79689;PMS5003;69156;55.932;-3.238;2023-07-20T11:16:08;20;19;
79689;PMS5003;69156;55.932;-3.238;2023-07-20T11:18:18;18;18;
79689;PMS5003;69156;55.932;-3.238;2023-07-20T11:20:44;20;20;
79689;PMS5003;69156;55.932;-3.238;2023-07-20T11:23:10;25;25;
79689;PMS5003;69156;55.932;-3.238;2023-07-20T11:25:37;25;25;
79689;PMS5003;69156;55.932;-3.238;2023-07-20T11:28:01;25;24;
79689;PMS5003;69156;55.932;-3.238;2023-07-20T11:30:26;28;28;
79689;PMS5003;69156;55.932;-3.238;2023-07-20T11:32:52;28;27;
79689;PMS5003;69156;55.932;-3.238;2023-07-20T11:35:17;27;25;
79689;PMS5003;69156;55.932;-3.238;2023-07-20T11:37:43;25;24;
79689;PMS5003;69156;55.932;-3.238;2023-07-20T11:40:09;21;21;
79689;PMS5003;69156;55.932;-3.238;2023-07-20T11:42:34;30;29;
79689;PMS5003;69156;55.932;-3.238;2023-07-20T11:45:01;25;24;
79689;PMS5003;69156;55.932;-3.238;2023-07-20T11:47:28;24;24;
79689;PMS5003;69156;55.932;-3.238;2023-07-20T11:49:50;23;23;
79689;PMS5003;69156;55.932;-3.238;2023-07-20T11:52:16;25;23;
79689;PMS5003;69156;55.932;-3.238;2023-07-20T11:54:42;23;22;
79689;PMS5003;69156;55.932;-3.238;2023-07-20T11:57:07;23;23;
79689;PMS5003;69156;55.932;-3.238;2023-07-20T11:59:32;26;24;
79689;PMS5003;69156;55.932;-3.238;2023-07-20T12:01:58;23;22;
79689;PMS5003;69156;55.932;-3.238;2023-07-20T12:04:23;22;22;
79689;PMS5003;69156;55.932;-3.238;2023-07-20T12:06:49;22;21;
79689;PMS5003;69156;55.932;-3.238;2023-07-20T12:09:14;24;22;
79689;PMS5003;69156;55.932;-3.238;2023-07-20T12:11:39;19;19;
79689;PMS5003;69156;55.932;-3.238;2023-07-20T12:14:06;19;19;
79689;PMS5003;69156;55.932;-3.238;2023-07-20T12:16:30;20;20;
79689;PMS5003;69156;55.932;-3.238;2023-07-20T12:18:59;22;22;
79689;PMS5003;69156;55.932;-3.238;2023-07-20T12:21:20;19;19;
79689;PMS5003;69156;55.932;-3.238;2023-07-20T12:23:46;21;21;
79689;PMS5003;69156;55.932;-3.238;2023-07-20T12:26:12;25;24;
79689;PMS5003;69156;55.932;-3.238;2023-07-20T12:28:39;23;23;
79689;PMS5003;69156;55.932;-3.238;2023-07-20T12:31:03;23;21;
79689;PMS5003;69156;55.932;-3.238;2023-07-20T12:33:28;17;17;
79689;PMS5003;69156;55.932;-3.238;2023-07-20T12:35:54;18;18;
79689;PMS5003;69156;55.932;-3.238;2023-07-20T12:38:19;20;20;
79689;PMS5003;69156;55.932;-3.238;2023-07-20T12:40:45;17;16;
79689;PMS5003;69156;55.932;-3.238;2023-07-20T12:43:10;19;19;
79689;PMS5003;69156;55.932;-3.238;2023-07-20T12:45:36;21;21;
79689;PMS5003;69156;55.932;-3.238;2023-07-20T12:48:02;23;23;
79689;PMS5003;69156;55.932;-3.238;2023-07-20T12:50:27;21;20;
79689;PMS5003;69156;55.932;-3.238;2023-07-20T12:52:52;21;20;
79689;PMS5003;69156;55.932;-3.238;2023-07-20T12:55:18;20;20;
79689;PMS5003;69156;55.932;-3.238;2023-07-20T12:57:43;20;19;
79689;PMS5003;69156;55.932;-3.238;2023-07-20T13:00:09;19;19;
79689;PMS5003;69156;55.932;-3.238;2023-07-20T13:02:34;16;16;
79689;PMS5003;69156;55.932;-3.238;2023-07-20T13:05:00;19;19;
79689;PMS5003;69156;55.932;-3.238;2023-07-20T13:07:29;21;21;
79689;PMS5003;69156;55.932;-3.238;2023-07-20T13:09:51;17;17;
79689;PMS5003;69156;55.932;-3.238;2023-07-20T13:12:16;18;17;
79689;PMS5003;69156;55.932;-3.238;2023-07-20T13:14:41;17;16;
79689;PMS5003;69156;55.932;-3.238;2023-07-20T13:17:08;18;18;
79689;PMS5003;69156;55.932;-3.238;2023-07-20T13:19:34;15;15;
79689;PMS5003;69156;55.932;-3.238;2023-07-20T13:21:59;15;15;
79689;PMS5003;69156;55.932;-3.238;2023-07-20T13:24:25;17;16;
79689;PMS5003;69156;55.932;-3.238;2023-07-20T13:26:50;14;14;
79689;PMS5003;69156;55.932;-3.238;2023-07-20T13:29:15;18;17;
79689;PMS5003;69156;55.932;-3.238;2023-07-20T13:31:41;14;13;
79689;PMS5003;69156;55.932;-3.238;2023-07-20T13:34:06;16;15;
79689;PMS5003;69156;55.932;-3.238;2023-07-20T13:36:32;13;12;
79689;PMS5003;69156;55.932;-3.238;2023-07-20T13:38:58;17;17;
79689;PMS5003;69156;55.932;-3.238;2023-07-20T13:41:23;17;17;
79689;PMS5003;69156;55.932;-3.238;2023-07-20T13:43:48;14;14;
79689;PMS5003;69156;55.932;-3.238;2023-07-20T13:46:13;17;15;
79689;PMS5003;69156;55.932;-3.238;2023-07-20T13:48:43;16;14;
79689;PMS5003;69156;55.932;-3.238;2023-07-20T13:51:08;15;14;
79689;PMS5003;69156;55.932;-3.238;2023-07-20T13:53:33;12;12;
79689;PMS5003;69156;55.932;-3.238;2023-07-20T13:56:00;15;14;
79689;PMS5003;69156;55.932;-3.238;2023-07-20T13:58:25;15;14;
79689;PMS5003;69156;55.932;-3.238;2023-07-20T14:00:50;12;11;
79689;PMS5003;69156;55.932;-3.238;2023-07-20T14:03:16;15;15;
79689;PMS5003;69156;55.932;-3.238;2023-07-20T14:05:42;13;13;
79689;PMS5003;69156;55.932;-3.238;2023-07-20T14:08:08;13;13;
79689;PMS5003;69156;55.932;-3.238;2023-07-20T14:10:33;11;11;
79689;PMS5003;69156;55.932;-3.238;2023-07-20T14:12:58;12;12;
79689;PMS5003;69156;55.932;-3.238;2023-07-20T14:15:23;15;15;
79689;PMS5003;69156;55.932;-3.238;2023-07-20T14:17:49;14;14;
79689;PMS5003;69156;55.932;-3.238;2023-07-20T14:20:14;13;12;
79689;PMS5003;69156;55.932;-3.238;2023-07-20T14:22:40;13;12;
79689;PMS5003;69156;55.932;-3.238;2023-07-20T14:25:06;11;11;
79689;PMS5003;69156;55.932;-3.238;2023-07-20T14:27:30;15;15;
79689;PMS5003;69156;55.932;-3.238;2023-07-20T14:29:55;14;14;
79689;PMS5003;69156;55.932;-3.238;2023-07-20T14:32:21;13;13;
79689;PMS5003;69156;55.932;-3.238;2023-07-20T14:34:46;11;11;
79689;PMS5003;69156;55.932;-3.238;2023-07-20T14:37:12;13;13;
79689;PMS5003;69156;55.932;-3.238;2023-07-20T14:39:37;13;13;
79689;PMS5003;69156;55.932;-3.238;2023-07-20T14:42:03;12;12;
79689;PMS5003;69156;55.932;-3.238;2023-07-20T14:44:29;12;12;
79689;PMS5003;69156;55.932;-3.238;2023-07-20T14:46:54;10;10;
79689;PMS5003;69156;55.932;-3.238;2023-07-20T14:49:19;11;11;
79689;PMS5003;69156;55.932;-3.238;2023-07-20T14:51:45;11;11;
79689;PMS5003;69156;55.932;-3.238;2023-07-20T14:54:10;12;12;
79689;PMS5003;69156;55.932;-3.238;2023-07-20T14:56:35;13;12;
79689;PMS5003;69156;55.932;-3.238;2023-07-20T14:56:37;12;11;
79689;PMS5003;69156;55.932;-3.238;2023-07-20T14:59:02;12;12;
79689;PMS5003;69156;55.932;-3.238;2023-07-20T15:01:27;10;10;
79689;PMS5003;69156;55.932;-3.238;2023-07-20T15:03:53;13;12;
79689;PMS5003;69156;55.932;-3.238;2023-07-20T15:06:19;12;12;
79689;PMS5003;69156;55.932;-3.238;2023-07-20T15:08:44;11;11;
79689;PMS5003;69156;55.932;-3.238;2023-07-20T15:11:11;10;10;
79689;PMS5003;69156;55.932;-3.238;2023-07-20T15:13:36;9;9;
79689;PMS5003;69156;55.932;-3.238;2023-07-20T15:16:01;11;11;
79689;PMS5003;69156;55.932;-3.238;2023-07-20T15:18:26;9;9;
79689;PMS5003;69156;55.932;-3.238;2023-07-20T15:20:53;13;12;
79689;PMS5003;69156;55.932;-3.238;2023-07-20T15:23:19;11;10;
79689;PMS5003;69156;55.932;-3.238;2023-07-20T15:25:44;9;8;
79689;PMS5003;69156;55.932;-3.238;2023-07-20T15:28:10;8;8;
79689;PMS5003;69156;55.932;-3.238;2023-07-20T15:30:35;9;9;
79689;PMS5003;69156;55.932;-3.238;2023-07-20T15:33:00;10;9;
79689;PMS5003;69156;55.932;-3.238;2023-07-20T15:35:26;10;10;
79689;PMS5003;69156;55.932;-3.238;2023-07-20T15:37:52;10;10;
79689;PMS5003;69156;55.932;-3.238;2023-07-20T15:40:18;9;9;
79689;PMS5003;69156;55.932;-3.238;2023-07-20T15:42:43;9;9;
79689;PMS5003;69156;55.932;-3.238;2023-07-20T15:45:09;10;8;
79689;PMS5003;69156;55.932;-3.238;2023-07-20T15:47:34;9;9;
79689;PMS5003;69156;55.932;-3.238;2023-07-20T15:49:59;8;8;